This is the latest recevied weather packets stored in our database for station/object SP1BMW-13. If no packets are shown the sender has not sent any weather packets the latest 10 day(s).
| Time | Temp. | Humidity | Pressure | Rain* | Wind** | Luminosity | Snow |
|---|---|---|---|---|---|---|---|
| 1778232300 | 12.78° C | 53% | 1020.2 hPa | 0 mm | 0.45 m/s, 41° | 294 W/m² | - |
| 1778232240 | 12.78° C | 55% | 1020.3 hPa | 0 mm | 0.89 m/s, 113° | 301 W/m² | - |
| 1778232180 | 12.78° C | 53% | 1020.4 hPa | 0 mm | 1.34 m/s, 41° | 307 W/m² | - |
| 1778232120 | 12.78° C | 54% | 1020.2 hPa | 0 mm | 0.45 m/s, 29° | 314 W/m² | - |
| 1778232060 | 12.78° C | 55% | 1020.3 hPa | 0 mm | 0.45 m/s, 15° | 322 W/m² | - |
| 1778232000 | 12.22° C | 53% | 1020.3 hPa | 0 mm | 0.89 m/s, 30° | 327 W/m² | - |
| 1778231939 | 12.22° C | 54% | 1020.3 hPa | 0 mm | 1.34 m/s, 36° | 327 W/m² | - |
| 1778231879 | 12.22° C | 54% | 1020.1 hPa | 0 mm | 0.89 m/s, 78° | 326 W/m² | - |
| 1778231820 | 12.22° C | 53% | 1020.1 hPa | 0 mm | 0.89 m/s, 53° | 324 W/m² | - |
| 1778231760 | 12.22° C | 53% | 1020.2 hPa | 0 mm | 0.89 m/s, 24° | 323 W/m² | - |
| 1778231699 | 12.22° C | 55% | 1020.3 hPa | 0 mm | 0.45 m/s, 28° | 320 W/m² | - |
| 1778231639 | 12.22° C | 52% | 1020.3 hPa | 0 mm | 1.79 m/s, 88° | 319 W/m² | - |
| 1778231579 | 12.22° C | 54% | 1020.1 hPa | 0 mm | 0.89 m/s, 51° | 315 W/m² | - |
| 1778231520 | 12.22° C | 54% | 1020.3 hPa | 0 mm | 0.45 m/s, 60° | 313 W/m² | - |
| 1778231459 | 12.22° C | 52% | 1020.1 hPa | 0 mm | 2.24 m/s, 285° | 314 W/m² | - |
| 1778231399 | 12.22° C | 55% | 1020.2 hPa | 0 mm | 0.45 m/s, 3° | 316 W/m² | - |
| 1778231339 | 12.22° C | 52% | 1020 hPa | 0 mm | 0.89 m/s, 58° | 318 W/m² | - |
| 1778231279 | 12.22° C | 52% | 1020.2 hPa | 0 mm | 0.45 m/s, 56° | 319 W/m² | - |
| 1778231219 | 12.22° C | 52% | 1020.2 hPa | 0 mm | 1.79 m/s, 39° | 320 W/m² | - |
| 1778231159 | 12.22° C | 55% | 1020.2 hPa | 0 mm | 0.89 m/s, 325° | 321 W/m² | - |
| 1778231099 | 12.22° C | 53% | 1020.2 hPa | 0 mm | 0.89 m/s, 107° | 324 W/m² | - |
| 1778231039 | 12.22° C | 53% | 1020.2 hPa | 0 mm | 3.58 m/s, 296° | 325 W/m² | - |
| 1778230981 | 12.22° C | 53% | 1020.1 hPa | 0 mm | 1.79 m/s, 268° | 323 W/m² | - |
| 1778230919 | 12.22° C | 52% | 1020.3 hPa | 0 mm | 1.79 m/s, 324° | 321 W/m² | - |
| 1778230860 | 12.22° C | 53% | 1020.3 hPa | 0 mm | 1.79 m/s, 321° | 320 W/m² | - |
* Rain latest hour (hover to see other rain measurements)
** Current wind speed in m/s (hover to see current wind gust speed)